Terminal Aerodrome Forecast
Issued by NWS

Home | Current Version | Previous Version | Text Only | Print | Product List | Glossary On
Versions: 1 2 3 4 5 6 7 8 9 10 11 12 13 14 15 16 17 18 19 20 21 22 23 24
000
FTUS45 KTWC 071732
TAFOLS
TAF
KOLS 071732Z 0718/0818 VRB04KT P6SM VCSH SCT080 SCT140
     FM071900 26009KT P6SM VCSH SCT080 BKN120
     FM080300 19005KT P6SM SCT070 BKN110
     FM080600 14004KT P6SM SCT110=

USA.gov is the U.S. government's official web portal to all federal, state and local government web resources and services.